Time,TemperatureF,DewpointF,PressureIn,WindDirection,WindDirectionDegrees,WindSpeedMPH,WindSpeedGustMPH,Humidity,HourlyPrecipIn,Conditions,Clouds,dailyrainin,SoftwareType,DateUTC
2013-12-25 00:11:00,34.4,16.0,30.36,ENE,60,13.0,20.0,48,0.00,,,0.00,weatherlink.com 1.10,2013-12-25 07:11:00,
2013-12-25 00:26:00,33.8,16.0,30.36,SSE,150,5.0,18.0,48,0.00,,,0.00,weatherlink.com 1.10,2013-12-25 07:26:00,
2013-12-25 00:42:00,33.6,15.0,30.36,ENE,64,4.0,24.0,47,0.00,,,0.00,weatherlink.com 1.10,2013-12-25 07:42:00,
2013-12-25 00:57:00,34.4,13.0,30.36,NNW,334,8.0,17.0,41,0.00,,,0.00,weatherlink.com 1.10,2013-12-25 07:57:00,
2013-12-25 01:12:00,33.0,12.0,30.35,NE,44,9.0,15.0,41,0.00,,,0.00,weatherlink.com 1.10,2013-12-25 08:12:00,
2013-12-25 01:28:00,32.7,12.0,30.35,NE,37,11.0,24.0,42,0.00,,,0.00,weatherlink.com 1.10,2013-12-25 08:28:00,
2013-12-25 01:42:00,32.7,11.0,30.35,NE,48,14.0,26.0,41,0.00,,,0.00,weatherlink.com 1.10,2013-12-25 08:42:00,
2013-12-25 01:57:00,31.8,13.0,30.36,East,98,11.0,21.0,45,0.00,,,0.00,weatherlink.com 1.10,2013-12-25 08:57:00,
2013-12-25 02:12:00,31.7,12.0,30.36,NE,56,14.0,21.0,45,0.00,,,0.00,weatherlink.com 1.10,2013-12-25 09:12:00,
2013-12-25 02:27:00,31.3,13.0,30.36,ENE,67,11.0,24.0,46,0.00,,,0.00,weatherlink.com 1.10,2013-12-25 09:27:00,
2013-12-25 02:42:00,31.0,12.0,30.37,NE,43,11.0,21.0,46,0.00,,,0.00,weatherlink.com 1.10,2013-12-25 09:42:00,
2013-12-25 02:57:00,31.2,12.0,30.36,ENE,64,16.0,23.0,45,0.00,,,0.00,weatherlink.com 1.10,2013-12-25 09:57:00,
2013-12-25 03:12:00,30.9,12.0,30.36,NNE,22,9.0,26.0,45,0.00,,,0.00,weatherlink.com 1.10,2013-12-25 10:12:00,
2013-12-25 03:27:00,30.8,12.0,30.36,NE,53,16.0,22.0,45,0.00,,,0.00,weatherlink.com 1.10,2013-12-25 10:27:00,
2013-12-25 03:42:00,30.5,12.0,30.36,NNE,27,16.0,22.0,46,0.00,,,0.00,weatherlink.com 1.10,2013-12-25 10:42:00,
2013-12-25 03:57:00,30.6,11.0,30.36,NE,44,10.0,21.0,45,0.00,,,0.00,weatherlink.com 1.10,2013-12-25 10:57:00,
2013-12-25 04:12:00,30.8,11.0,30.36,East,86,17.0,26.0,43,0.00,,,0.00,weatherlink.com 1.10,2013-12-25 11:12:00,
2013-12-25 04:27:00,31.2,9.0,30.35,ENE,60,13.0,24.0,39,0.00,,,0.00,weatherlink.com 1.10,2013-12-25 11:27:00,
2013-12-25 04:42:00,31.4,8.0,30.36,East,101,11.0,27.0,37,0.00,,,0.00,weatherlink.com 1.10,2013-12-25 11:42:00,
2013-12-25 04:57:00,31.9,6.0,30.36,ENE,72,12.0,26.0,34,0.00,,,0.00,weatherlink.com 1.10,2013-12-25 11:57:00,
2013-12-25 05:12:00,31.4,7.0,30.36,ENE,63,20.0,24.0,35,0.00,,,0.00,weatherlink.com 1.10,2013-12-25 12:12:00,
2013-12-25 05:27:00,31.3,6.0,30.36,NE,38,12.0,24.0,34,0.00,,,0.00,weatherlink.com 1.10,2013-12-25 12:27:00,
2013-12-25 05:42:00,30.9,5.0,30.37,NNE,19,8.0,21.0,34,0.00,,,0.00,weatherlink.com 1.10,2013-12-25 12:42:00,
2013-12-25 05:57:00,30.7,5.0,30.37,ENE,65,12.0,20.0,34,0.00,,,0.00,weatherlink.com 1.10,2013-12-25 12:57:00,
2013-12-25 06:13:00,30.9,5.0,30.37,ENE,58,13.0,22.0,33,0.00,,,0.00,weatherlink.com 1.10,2013-12-25 13:13:00,
2013-12-25 06:28:00,31.3,4.0,30.38,ENE,59,8.0,21.0,32,0.00,,,0.00,weatherlink.com 1.10,2013-12-25 13:28:00,
2013-12-25 06:43:00,30.6,5.0,30.38,ENE,57,7.0,18.0,33,0.00,,,0.00,weatherlink.com 1.10,2013-12-25 13:43:00,
2013-12-25 06:58:00,29.8,5.0,30.38,ENE,58,9.0,18.0,35,0.00,,,0.00,weatherlink.com 1.10,2013-12-25 13:58:00,
2013-12-25 07:13:00,29.4,6.0,30.39,North,7,7.0,14.0,37,0.00,,,0.00,weatherlink.com 1.10,2013-12-25 14:13:00,
2013-12-25 07:28:00,29.0,7.0,30.39,ENE,61,6.0,16.0,40,0.00,,,0.00,weatherlink.com 1.10,2013-12-25 14:28:00,
2013-12-25 07:43:00,30.0,5.0,30.39,NNE,25,9.0,16.0,34,0.00,,,0.00,weatherlink.com 1.10,2013-12-25 14:43:00,
2013-12-25 07:58:00,32.6,-1.0,30.40,NE,56,8.0,17.0,24,0.00,,,0.00,weatherlink.com 1.10,2013-12-25 14:58:00,
2013-12-25 08:13:00,32.2,2.0,30.40,ENE,58,7.0,16.0,28,0.00,,,0.00,weatherlink.com 1.10,2013-12-25 15:13:00,
2013-12-25 08:28:00,33.2,2.0,30.41,NE,56,12.0,16.0,26,0.00,,,0.00,weatherlink.com 1.10,2013-12-25 15:28:00,
2013-12-25 08:43:00,33.9,1.0,30.41,ENE,58,8.0,14.0,25,0.00,,,0.00,weatherlink.com 1.10,2013-12-25 15:43:00,
2013-12-25 08:58:00,34.5,2.0,30.41,NE,51,5.0,15.0,25,0.00,,,0.00,weatherlink.com 1.10,2013-12-25 15:58:00,
2013-12-25 09:13:00,35.7,2.0,30.42,NE,45,7.0,14.0,24,0.00,,,0.00,weatherlink.com 1.10,2013-12-25 16:13:00,
2013-12-25 09:28:00,36.1,3.0,30.42,NE,53,7.0,16.0,25,0.00,,,0.00,weatherlink.com 1.10,2013-12-25 16:28:00,
2013-12-25 09:43:00,36.5,3.0,30.42,NE,49,17.0,17.0,24,0.00,,,0.00,weatherlink.com 1.10,2013-12-25 16:43:00,
2013-12-25 09:58:00,36.8,5.0,30.42,ENE,68,10.0,20.0,26,0.00,,,0.00,weatherlink.com 1.10,2013-12-25 16:58:00,
2013-12-25 10:14:00,36.5,4.0,30.42,ENE,58,11.0,17.0,26,0.00,,,0.00,weatherlink.com 1.10,2013-12-25 17:14:00,
2013-12-25 10:29:00,37.0,3.0,30.43,NNE,27,8.0,15.0,24,0.00,,,0.00,weatherlink.com 1.10,2013-12-25 17:29:00,
2013-12-25 10:44:00,38.4,3.0,30.43,NE,49,6.0,16.0,23,0.00,,,0.00,weatherlink.com 1.10,2013-12-25 17:44:00,
2013-12-25 10:59:00,38.6,3.0,30.43,SE,126,5.0,17.0,22,0.00,,,0.00,weatherlink.com 1.10,2013-12-25 17:59:00,
2013-12-25 11:14:00,38.6,1.0,30.42,ENE,70,11.0,20.0,20,0.00,,,0.00,weatherlink.com 1.10,2013-12-25 18:14:00,
2013-12-25 11:29:00,39.1,2.0,30.41,East,90,5.0,16.0,21,0.00,,,0.00,weatherlink.com 1.10,2013-12-25 18:29:00,
2013-12-25 11:44:00,39.3,2.0,30.41,ENE,64,11.0,21.0,21,0.00,,,0.00,weatherlink.com 1.10,2013-12-25 18:44:00,
2013-12-25 11:59:00,39.4,1.0,30.41,NE,56,6.0,16.0,20,0.00,,,0.00,weatherlink.com 1.10,2013-12-25 18:59:00,
2013-12-25 12:14:00,39.6,2.0,30.40,ENE,60,10.0,18.0,21,0.00,,,0.00,weatherlink.com 1.10,2013-12-25 19:14:00,
2013-12-25 12:29:00,40.2,3.0,30.38,NE,49,12.0,20.0,21,0.00,,,0.00,weatherlink.com 1.10,2013-12-25 19:29:00,
2013-12-25 12:44:00,40.9,1.0,30.38,ENE,60,13.0,21.0,19,0.00,,,0.00,weatherlink.com 1.10,2013-12-25 19:44:00,
2013-12-25 12:59:00,42.2,1.0,30.37,NE,54,9.0,19.0,18,0.00,,,0.00,weatherlink.com 1.10,2013-12-25 19:59:00,
2013-12-25 13:14:00,42.7,1.0,30.36,ENE,60,9.0,18.0,17,0.00,,,0.00,weatherlink.com 1.10,2013-12-25 20:14:00,
2013-12-25 13:29:00,43.2,0.0,30.36,NE,46,9.0,17.0,16,0.00,,,0.00,weatherlink.com 1.10,2013-12-25 20:29:00,
2013-12-25 13:45:00,43.2,0.0,30.35,ENE,77,12.0,19.0,16,0.00,,,0.00,weatherlink.com 1.10,2013-12-25 20:45:00,
2013-12-25 14:00:00,42.3,1.0,30.35,NNE,33,14.0,21.0,18,0.00,,,0.00,weatherlink.com 1.10,2013-12-25 21:00:00,
2013-12-25 14:15:00,41.7,1.0,30.35,NE,40,15.0,25.0,18,0.00,,,0.00,weatherlink.com 1.10,2013-12-25 21:15:00,
2013-12-25 14:30:00,41.4,3.0,30.35,NE,44,13.0,21.0,20,0.00,,,0.00,weatherlink.com 1.10,2013-12-25 21:30:00,
2013-12-25 14:45:00,41.4,1.0,30.35,ENE,59,10.0,20.0,18,0.00,,,0.00,weatherlink.com 1.10,2013-12-25 21:45:00,
2013-12-25 15:00:00,41.1,2.0,30.35,ENE,58,16.0,20.0,19,0.00,,,0.00,weatherlink.com 1.10,2013-12-25 22:00:00,
2013-12-25 15:15:00,40.7,3.0,30.35,NE,44,10.0,19.0,21,0.00,,,0.00,weatherlink.com 1.10,2013-12-25 22:15:00,
2013-12-25 15:30:00,40.5,5.0,30.35,NE,51,8.0,22.0,23,0.00,,,0.00,weatherlink.com 1.10,2013-12-25 22:30:00,
2013-12-25 15:45:00,40.3,3.0,30.36,ENE,62,10.0,20.0,21,0.00,,,0.00,weatherlink.com 1.10,2013-12-25 22:45:00,
2013-12-25 16:00:00,39.6,3.0,30.36,NE,53,10.0,18.0,22,0.00,,,0.00,weatherlink.com 1.10,2013-12-25 23:00:00,
2013-12-25 16:15:00,39.0,5.0,30.36,ENE,57,5.0,18.0,24,0.00,,,0.00,weatherlink.com 1.10,2013-12-25 23:15:00,
2013-12-25 16:30:00,39.0,4.0,30.36,NE,55,11.0,17.0,23,0.00,,,0.00,weatherlink.com 1.10,2013-12-25 23:30:00,
2013-12-25 16:45:00,38.4,3.0,30.36,ENE,65,3.0,16.0,23,0.00,,,0.00,weatherlink.com 1.10,2013-12-25 23:45:00,
2013-12-25 17:00:00,38.2,3.0,30.36,ENE,65,3.0,12.0,23,0.00,,,0.00,weatherlink.com 1.10,2013-12-26 00:00:00,
2013-12-25 17:15:00,37.5,4.0,30.36,East,88,2.0,11.0,24,0.00,,,0.00,weatherlink.com 1.10,2013-12-26 00:15:00,
2013-12-25 17:30:00,36.1,4.0,30.36,ENE,72,4.0,8.0,26,0.00,,,0.00,weatherlink.com 1.10,2013-12-26 00:30:00,
2013-12-25 17:45:00,35.3,5.0,30.37,NNE,18,1.0,7.0,28,0.00,,,0.00,weatherlink.com 1.10,2013-12-26 00:45:00,
2013-12-25 18:00:00,34.2,6.0,30.36,NNE,24,1.0,4.0,31,0.00,,,0.00,weatherlink.com 1.10,2013-12-26 01:00:00,
2013-12-25 18:15:00,33.3,7.0,30.37,NE,50,2.0,3.0,33,0.00,,,0.00,weatherlink.com 1.10,2013-12-26 01:15:00,
2013-12-25 18:30:00,32.7,6.0,30.37,NNE,13,2.0,4.0,32,0.00,,,0.00,weatherlink.com 1.10,2013-12-26 01:30:00,
2013-12-25 18:45:00,34.4,4.0,30.37,NE,56,4.0,4.0,28,0.00,,,0.00,weatherlink.com 1.10,2013-12-26 01:45:00,
2013-12-25 19:15:00,35.0,3.0,30.38,ENE,58,3.0,9.0,26,0.00,,,0.00,weatherlink.com 1.10,2013-12-26 02:15:00,
2013-12-25 19:30:00,34.3,5.0,30.38,NE,55,2.0,7.0,29,0.00,,,0.00,weatherlink.com 1.10,2013-12-26 02:30:00,
2013-12-25 19:45:00,33.5,6.0,30.38,NE,51,5.0,7.0,31,0.00,,,0.00,weatherlink.com 1.10,2013-12-26 02:45:00,
2013-12-25 20:00:00,32.8,6.0,30.38,ENE,70,0.0,7.0,32,0.00,,,0.00,weatherlink.com 1.10,2013-12-26 03:00:00,
2013-12-25 20:15:00,31.7,7.0,30.39,SE,139,0.0,5.0,35,0.00,,,0.00,weatherlink.com 1.10,2013-12-26 03:15:00,
2013-12-25 20:30:00,30.0,8.0,30.39,SSE,148,0.0,3.0,40,0.00,,,0.00,weatherlink.com 1.10,2013-12-26 03:30:00,
2013-12-25 20:45:00,28.5,8.0,30.39,SW,235,0.0,1.0,42,0.00,,,0.00,weatherlink.com 1.10,2013-12-26 03:45:00,
2013-12-25 21:00:00,27.1,10.0,30.40,East,86,0.0,2.0,48,0.00,,,0.00,weatherlink.com 1.10,2013-12-26 04:00:00,
2013-12-25 21:15:00,29.7,7.0,30.40,East,83,0.0,3.0,39,0.00,,,0.00,weatherlink.com 1.10,2013-12-26 04:15:00,
2013-12-25 21:30:00,28.8,8.0,30.40,SE,146,0.0,1.0,42,0.00,,,0.00,weatherlink.com 1.10,2013-12-26 04:30:00,
2013-12-25 21:45:00,31.7,4.0,30.39,ENE,75,2.0,6.0,31,0.00,,,0.00,weatherlink.com 1.10,2013-12-26 04:45:00,
2013-12-25 22:00:00,34.6,3.0,30.39,NE,52,5.0,14.0,26,0.00,,,0.00,weatherlink.com 1.10,2013-12-26 05:00:00,
2013-12-25 22:15:00,35.1,4.0,30.40,East,81,0.0,10.0,27,0.00,,,0.00,weatherlink.com 1.10,2013-12-26 05:15:00,
2013-12-25 22:30:00,34.0,3.0,30.40,ENE,59,6.0,12.0,27,0.00,,,0.00,weatherlink.com 1.10,2013-12-26 05:30:00,
2013-12-25 22:46:00,34.3,3.0,30.39,NE,51,9.0,14.0,26,0.00,,,0.00,weatherlink.com 1.10,2013-12-26 05:46:00,
2013-12-25 23:01:00,34.0,2.0,30.39,NNE,26,3.0,12.0,26,0.00,,,0.00,weatherlink.com 1.10,2013-12-26 06:01:00,
2013-12-25 23:16:00,34.4,2.0,30.39,ENE,72,4.0,19.0,25,0.00,,,0.00,weatherlink.com 1.10,2013-12-26 06:16:00,
2013-12-25 23:31:00,34.6,0.0,30.38,ENE,60,7.0,15.0,23,0.00,,,0.00,weatherlink.com 1.10,2013-12-26 06:31:00,
2013-12-25 23:46:00,35.9,-2.0,30.38,NE,52,8.0,14.0,20,0.00,,,0.00,weatherlink.com 1.10,2013-12-26 06:46:00,